createdAt,value
2018-11-12T00:01:05.407Z,10.44
2018-11-12T00:04:21.957Z,10.54
2018-11-12T00:07:37.976Z,10.60
2018-11-12T00:10:53.866Z,10.78
2018-11-12T00:14:10.307Z,10.72
2018-11-12T00:17:26.276Z,10.65
2018-11-12T00:20:42.122Z,10.78
2018-11-12T00:23:58.110Z,10.74
2018-11-12T00:27:03.303Z,10.77
2018-11-12T00:30:27.021Z,10.78
2018-11-12T00:33:50.658Z,10.78
2018-11-12T00:37:14.336Z,10.96
2018-11-12T00:40:37.756Z,11.05
2018-11-12T00:44:01.397Z,10.96
2018-11-12T00:47:06.420Z,10.97
2018-11-12T00:50:12.515Z,11.03
2018-11-12T00:53:36.197Z,11.04
2018-11-12T00:56:41.067Z,11.10
2018-11-12T00:59:45.894Z,11.09
2018-11-12T01:03:09.574Z,11.01
2018-11-12T01:06:14.376Z,11.10
2018-11-12T01:09:38.235Z,11.05
2018-11-12T01:13:01.915Z,10.99
2018-11-12T01:16:06.862Z,11.09
2018-11-12T01:19:11.674Z,11.13
2018-11-12T01:22:35.416Z,11.10
2018-11-12T01:25:59.080Z,11.05
2018-11-12T01:29:03.882Z,11.07
2018-11-12T01:32:08.676Z,11.04
2018-11-12T01:35:14.522Z,10.98
2018-11-12T01:38:38.191Z,10.96
2018-11-12T01:42:01.898Z,10.95
2018-11-12T01:45:21.286Z,10.94
2018-11-12T01:48:37.348Z,10.78
2018-11-12T01:51:52.947Z,10.66
2018-11-12T01:55:10.062Z,10.63
2018-11-12T01:58:26.476Z,10.71
2018-11-12T02:01:42.650Z,10.77
2018-11-12T02:04:58.690Z,10.81
2018-11-12T02:08:03.582Z,10.82
2018-11-12T02:11:27.337Z,10.77
2018-11-12T02:14:51.031Z,10.57
2018-11-12T02:17:55.870Z,10.55
2018-11-12T02:21:19.528Z,10.51
2018-11-12T02:24:43.192Z,10.43
2018-11-12T02:27:47.975Z,10.34
2018-11-12T02:31:11.627Z,10.37
2018-11-12T02:34:35.306Z,10.29
2018-11-12T02:37:51.937Z,10.28
2018-11-12T02:41:08.116Z,10.25
2018-11-12T02:44:23.817Z,10.19
2018-11-12T02:47:28.731Z,10.19
2018-11-12T02:50:34.291Z,10.19
2018-11-12T02:53:58.037Z,10.20
2018-11-12T02:57:03.577Z,10.20
2018-11-12T03:00:14.571Z,10.19
2018-11-12T03:03:38.215Z,10.15
2018-11-12T03:06:54.774Z,10.12
2018-11-12T03:10:10.767Z,10.28
2018-11-12T03:13:26.616Z,10.44
2018-11-12T03:16:43.230Z,10.50
2018-11-12T03:19:48.096Z,10.63
2018-11-12T03:23:11.793Z,10.67
2018-11-12T03:26:27.968Z,10.63
2018-11-12T03:29:32.833Z,10.49
2018-11-12T03:32:37.618Z,10.45
2018-11-12T03:36:01.329Z,10.45
2018-11-12T03:39:25.092Z,10.41
2018-11-12T03:42:40.757Z,10.35
2018-11-12T03:45:45.572Z,10.36
2018-11-12T03:49:09.233Z,10.43
2018-11-12T03:52:23.584Z,10.62
2018-11-12T03:55:39.796Z,10.65
2018-11-12T03:58:55.952Z,10.52
2018-11-12T04:02:12.126Z,10.46
2018-11-12T04:05:28.097Z,10.41
2018-11-12T04:08:44.188Z,10.45
2018-11-12T04:12:00.142Z,10.63
2018-11-12T04:15:20.405Z,10.63
2018-11-12T04:18:25.297Z,10.80
2018-11-12T04:21:30.096Z,10.93
2018-11-12T04:24:53.776Z,10.99
2018-11-12T04:28:17.460Z,11.08
2018-11-12T04:31:35.956Z,10.94
2018-11-12T04:34:52.038Z,11.20
2018-11-12T04:38:08.277Z,11.09
2018-11-12T04:41:24.639Z,11.01
2018-11-12T04:44:40.981Z,10.92
2018-11-12T04:47:57.151Z,11.05
2018-11-12T04:51:13.552Z,10.97
2018-11-12T04:54:30.171Z,11.05
2018-11-12T04:57:46.661Z,11.04
2018-11-12T05:01:02.452Z,11.01
2018-11-12T05:04:18.480Z,11.04
2018-11-12T05:07:34.296Z,10.89
2018-11-12T05:10:50.246Z,10.85
2018-11-12T05:14:05.923Z,10.79
2018-11-12T05:17:22.461Z,10.79
2018-11-12T05:20:38.178Z,10.81
2018-11-12T05:23:54.043Z,10.85
2018-11-12T05:27:10.357Z,10.81
2018-11-12T05:30:19.783Z,10.74
2018-11-12T05:33:43.523Z,10.67
2018-11-12T05:37:07.436Z,10.69
2018-11-12T05:40:31.637Z,10.52
2018-11-12T05:46:52.056Z,10.44
2018-11-12T05:50:20.236Z,10.45
2018-11-12T05:53:43.923Z,10.48
2018-11-12T05:57:00.357Z,10.43
2018-11-12T06:00:34.953Z,10.44
2018-11-12T06:03:39.769Z,10.46
2018-11-12T06:07:03.451Z,10.50
2018-11-12T06:10:28.412Z,10.51
2018-11-12T06:13:44.300Z,10.58
2018-11-12T06:17:00.347Z,10.58
2018-11-12T06:20:41.137Z,10.62
2018-11-12T06:23:57.318Z,10.60
2018-11-12T06:27:13.155Z,10.81
2018-11-12T06:30:30.661Z,10.92
2018-11-12T06:33:46.263Z,10.89
2018-11-12T06:37:02.722Z,10.94
2018-11-12T06:40:19.572Z,10.90
2018-11-12T06:43:35.609Z,10.88
2018-11-12T06:46:52.183Z,10.86
2018-11-12T06:50:08.691Z,10.86
2018-11-12T06:53:25.141Z,10.88
2018-11-12T06:56:41.107Z,10.95
2018-11-12T06:59:45.967Z,11.02
2018-11-12T07:02:50.786Z,10.99
2018-11-12T07:06:14.545Z,10.96
2018-11-12T07:09:19.314Z,10.90
2018-11-12T07:12:43.862Z,10.99
2018-11-12T07:15:48.687Z,10.96
2018-11-12T07:19:12.373Z,10.98
2018-11-12T07:22:36.081Z,11.00
2018-11-12T07:25:52.651Z,11.07
2018-11-12T07:29:16.033Z,11.07
2018-11-12T07:32:39.688Z,11.01
2018-11-12T07:35:44.538Z,11.01
2018-11-12T07:38:49.457Z,11.04
2018-11-12T07:42:13.236Z,11.08
2018-11-12T07:45:30.113Z,11.10
2018-11-12T07:48:35.279Z,11.16
2018-11-12T07:51:58.849Z,11.15
2018-11-12T07:55:03.961Z,11.11
2018-11-12T07:58:27.654Z,11.13
2018-11-12T08:01:44.268Z,11.05
2018-11-12T08:04:49.146Z,11.04
2018-11-12T08:08:12.788Z,11.09
2018-11-12T08:11:29.106Z,11.17
2018-11-12T08:14:33.879Z,11.17
2018-11-12T08:26:03.686Z,11.23
2018-11-12T08:29:20.239Z,11.43
2018-11-12T08:32:36.647Z,11.41
2018-11-12T08:35:52.318Z,11.37
2018-11-12T08:39:08.655Z,11.57
2018-11-12T08:42:24.499Z,11.63
2018-11-12T08:45:40.507Z,11.53
2018-11-12T08:48:57.229Z,11.51
2018-11-12T08:52:13.160Z,11.46
2018-11-12T08:55:30.206Z,11.67
2018-11-12T09:02:45.191Z,11.57
2018-11-12T09:06:01.852Z,11.94
2018-11-12T09:09:18.410Z,12.04
2018-11-12T09:12:34.684Z,12.15
2018-11-12T09:15:50.360Z,12.20
2018-11-12T09:19:06.490Z,12.22
2018-11-12T09:22:22.346Z,12.43
2018-11-12T09:25:38.107Z,12.46
2018-11-12T09:28:42.968Z,12.75
2018-11-12T09:32:06.669Z,12.80
2018-11-12T09:35:30.092Z,12.81
2018-11-12T09:38:54.010Z,13.04
2018-11-12T09:42:09.875Z,13.20
2018-11-12T09:45:14.762Z,13.01
2018-11-12T09:48:19.558Z,12.87
2018-11-12T09:51:24.365Z,13.04
2018-11-12T09:54:48.140Z,12.94
2018-11-12T09:58:12.216Z,13.05
2018-11-12T10:01:28.387Z,13.07
2018-11-12T10:04:45.561Z,13.04
2018-11-12T10:08:12.279Z,13.25
2018-11-12T10:11:35.813Z,13.35
2018-11-12T10:14:59.414Z,13.37
2018-11-12T10:18:15.303Z,13.40
2018-11-12T10:21:20.112Z,13.61
2018-11-12T10:24:43.798Z,13.76
2018-11-12T10:28:07.497Z,13.80
2018-11-12T10:31:23.369Z,14.03
2018-11-12T10:34:39.192Z,13.95
2018-11-12T10:38:02.947Z,14.21
2018-11-12T10:41:08.158Z,14.10
2018-11-12T10:44:12.994Z,14.10
2018-11-12T10:47:17.857Z,14.21
2018-11-12T10:50:42.815Z,14.36
2018-11-12T10:53:50.207Z,14.35
2018-11-12T10:57:10.091Z,14.35
2018-11-12T11:00:52.820Z,14.37
2018-11-12T11:04:16.232Z,14.57
2018-11-12T11:07:39.944Z,14.63
2018-11-12T11:10:56.213Z,14.67
2018-11-12T11:14:12.815Z,14.96
2018-11-12T11:17:29.210Z,15.00
2018-11-12T11:20:45.299Z,15.21
2018-11-12T11:23:50.179Z,15.36
2018-11-12T11:27:13.841Z,15.70
2018-11-12T11:30:29.470Z,15.63
2018-11-12T11:33:34.370Z,15.76
2018-11-12T11:36:58.042Z,15.99
2018-11-12T11:40:40.413Z,16.05
2018-11-12T11:43:56.381Z,16.24
2018-11-12T11:47:12.841Z,16.36
2018-11-12T11:50:28.985Z,16.27
2018-11-12T11:53:45.299Z,16.41
2018-11-12T11:56:50.571Z,16.22
2018-11-12T12:00:21.258Z,15.99
2018-11-12T12:03:44.909Z,16.31
2018-11-12T12:06:50.090Z,16.24
2018-11-12T12:09:54.889Z,16.49
2018-11-12T12:12:59.678Z,16.77
2018-11-12T12:16:04.590Z,16.48
2018-11-12T12:19:28.394Z,16.79
2018-11-12T12:22:52.274Z,16.88
2018-11-12T12:26:08.662Z,16.46
2018-11-12T12:29:13.463Z,16.25
2018-11-12T12:32:37.494Z,16.16
2018-11-12T12:35:42.295Z,15.95
2018-11-12T12:38:47.329Z,15.97
2018-11-12T12:41:52.199Z,15.92
2018-11-12T12:45:17.285Z,15.87
2018-11-12T12:48:41.041Z,15.80
2018-11-12T12:52:05.804Z,16.16
2018-11-12T12:55:29.551Z,16.24
2018-11-12T12:58:45.605Z,16.19
2018-11-12T13:02:01.432Z,16.20
2018-11-12T13:05:17.779Z,16.17
2018-11-12T13:08:33.794Z,16.12
2018-11-12T13:11:50.378Z,16.42
2018-11-12T13:15:06.225Z,16.66
2018-11-12T13:18:22.766Z,16.66
2018-11-12T13:21:38.771Z,16.72
2018-11-12T13:24:55.436Z,16.72
2018-11-12T13:28:11.965Z,16.89
2018-11-12T13:31:28.417Z,16.59
2018-11-12T13:34:44.994Z,16.50
2018-11-12T13:37:50.430Z,16.36
2018-11-12T13:40:55.196Z,16.61
2018-11-12T13:44:18.880Z,16.67
2018-11-12T13:47:42.716Z,17.01
2018-11-12T13:50:59.111Z,16.84
2018-11-12T13:54:14.871Z,16.37
2018-11-12T13:57:20.491Z,16.50
2018-11-12T14:00:44.220Z,16.75
2018-11-12T14:03:49.012Z,16.63
2018-11-12T14:07:12.696Z,16.45
2018-11-12T14:10:36.387Z,15.88
2018-11-12T14:14:00.247Z,15.66
2018-11-12T14:17:05.030Z,15.53
2018-11-12T14:20:28.789Z,15.55
2018-11-12T14:23:45.064Z,15.76
2018-11-12T14:26:50.690Z,15.98
2018-11-12T14:30:15.720Z,15.78
2018-11-12T14:33:20.693Z,15.69
2018-11-12T14:36:25.505Z,15.84
2018-11-12T14:39:49.278Z,15.84
2018-11-12T14:43:05.246Z,15.75
2018-11-12T14:46:10.035Z,15.63
2018-11-12T14:49:33.845Z,16.01
2018-11-12T14:52:57.615Z,16.19
2018-11-12T14:56:02.685Z,16.25
2018-11-12T14:59:08.432Z,15.75
2018-11-12T15:02:31.887Z,15.25
2018-11-12T15:05:55.569Z,14.87
2018-11-12T15:09:12.167Z,14.54
2018-11-12T15:12:28.571Z,14.40
2018-11-12T15:15:47.490Z,14.20
2018-11-12T15:19:04.191Z,14.08
2018-11-12T15:22:09.051Z,13.94
2018-11-12T15:25:33.396Z,13.86
2018-11-12T15:28:57.120Z,13.80
2018-11-12T15:32:01.970Z,13.81
2018-11-12T15:35:25.710Z,13.86
2018-11-12T15:38:49.457Z,13.78
2018-11-12T15:42:06.046Z,13.71
2018-11-12T15:45:30.389Z,13.74
2018-11-12T15:48:35.211Z,13.68
2018-11-12T15:51:59.025Z,13.69
2018-11-12T15:55:15.830Z,13.66
2018-11-12T15:58:21.088Z,13.58
2018-11-12T16:01:44.679Z,13.47
2018-11-12T16:04:49.499Z,13.45
2018-11-12T16:07:54.363Z,13.45
2018-11-12T16:11:18.086Z,13.46
2018-11-12T16:14:22.917Z,13.39
2018-11-12T16:17:46.657Z,13.29
2018-11-12T16:21:02.364Z,13.10
2018-11-12T16:24:07.601Z,13.03
2018-11-12T16:27:31.405Z,12.97
2018-11-12T16:30:55.171Z,12.96
2018-11-12T16:34:00.105Z,12.92
2018-11-12T16:37:23.790Z,12.79
2018-11-12T16:40:47.520Z,12.82
2018-11-12T16:44:11.390Z,12.75
2018-11-12T16:50:33.000Z,12.74
2018-11-12T16:53:38.182Z,12.78
2018-11-12T16:57:01.863Z,12.75
2018-11-12T17:00:08.180Z,12.74
2018-11-12T17:03:31.894Z,12.69
2018-11-12T17:06:47.881Z,12.72
2018-11-12T17:10:04.494Z,12.71
2018-11-12T17:13:20.909Z,12.64
2018-11-12T17:16:37.538Z,12.65
2018-11-12T17:19:42.414Z,12.63
2018-11-12T17:22:47.623Z,12.61
2018-11-12T17:26:11.846Z,12.59
2018-11-12T17:29:35.619Z,12.57
2018-11-12T17:32:40.535Z,12.51
2018-11-12T17:36:11.575Z,12.50
2018-11-12T17:39:27.265Z,12.45
2018-11-12T17:42:51.606Z,12.37
2018-11-12T17:46:15.377Z,12.27
2018-11-12T17:49:31.931Z,12.29
2018-11-12T17:52:47.986Z,12.32
2018-11-12T17:55:52.834Z,12.23
2018-11-12T17:58:57.732Z,12.27
2018-11-12T18:02:21.536Z,12.31
2018-11-12T18:05:26.399Z,12.21
2018-11-12T18:08:51.287Z,12.15
2018-11-12T18:12:06.087Z,12.12
2018-11-12T18:15:23.867Z,11.96
2018-11-12T18:18:40.511Z,11.97
2018-11-12T18:21:56.137Z,11.92
2018-11-12T18:25:12.341Z,11.89
2018-11-12T18:28:28.296Z,11.86
2018-11-12T18:31:44.191Z,11.74
2018-11-12T18:35:00.134Z,11.63
2018-11-12T18:38:15.981Z,11.59
2018-11-12T18:41:21.555Z,11.38
2018-11-12T18:44:45.283Z,11.31
2018-11-12T18:48:09.074Z,11.40
2018-11-12T18:51:24.978Z,11.42
2018-11-12T18:54:41.123Z,11.33
2018-11-12T18:57:46.736Z,11.23
2018-11-12T19:00:54.295Z,11.19
2018-11-12T19:04:17.998Z,11.20
2018-11-12T19:07:33.865Z,11.17
2018-11-12T19:10:49.866Z,11.14
2018-11-12T19:14:06.414Z,11.20
2018-11-12T19:17:22.829Z,11.22
2018-11-12T19:20:38.832Z,11.26
2018-11-12T19:23:44.275Z,11.17
2018-11-12T19:26:49.180Z,11.18
2018-11-12T19:29:54.087Z,11.20
2018-11-12T19:33:17.784Z,11.24
2018-11-12T19:36:22.759Z,11.24
2018-11-12T19:39:27.518Z,11.27
2018-11-12T19:42:52.336Z,11.24
2018-11-12T19:46:16.040Z,11.20
2018-11-12T19:49:22.039Z,11.01
2018-11-12T19:52:26.961Z,10.95
2018-11-12T19:55:50.707Z,10.99
2018-11-12T19:58:55.808Z,10.94
2018-11-12T20:02:19.741Z,10.96
2018-11-12T20:05:36.109Z,10.88
2018-11-12T20:08:52.160Z,10.86
2018-11-12T20:11:59.876Z,10.85
2018-11-12T20:15:24.433Z,10.79
2018-11-12T20:18:40.516Z,10.77
2018-11-12T20:21:57.077Z,10.80
2018-11-12T20:25:02.054Z,10.77
2018-11-12T20:28:09.150Z,10.81
2018-11-12T20:31:33.061Z,10.86
2018-11-12T20:34:48.806Z,10.85
2018-11-12T20:37:53.746Z,10.80
2018-11-12T20:44:43.108Z,10.67
2018-11-12T20:47:59.888Z,10.59
2018-11-12T20:51:07.218Z,10.58
2018-11-12T20:54:31.430Z,10.52
2018-11-12T20:57:55.153Z,10.51
2018-11-12T21:01:20.987Z,10.56
2018-11-12T21:04:26.843Z,10.58
2018-11-12T21:07:42.606Z,10.52
2018-11-12T21:10:58.601Z,10.43
2018-11-12T21:14:14.993Z,10.41
2018-11-12T21:17:31.455Z,10.43
2018-11-12T21:20:47.776Z,10.37
2018-11-12T21:24:04.114Z,10.40
2018-11-12T21:27:09.049Z,10.49
2018-11-12T21:30:33.950Z,10.51
2018-11-12T21:33:57.621Z,10.50
2018-11-12T21:37:14.052Z,10.49
2018-11-12T21:40:20.132Z,10.49
2018-11-12T21:43:27.028Z,10.49
2018-11-12T21:46:48.970Z,10.50
2018-11-12T21:50:05.235Z,10.44
2018-11-12T21:53:20.871Z,10.42
2018-11-12T21:56:36.745Z,10.34
2018-11-12T21:59:52.961Z,10.31
2018-11-12T22:03:08.663Z,10.27
2018-11-12T22:06:14.391Z,10.25
2018-11-12T22:09:19.247Z,10.21
2018-11-12T22:12:44.376Z,10.20
2018-11-12T22:16:00.653Z,10.14
2018-11-12T22:19:17.096Z,10.23
2018-11-12T22:22:33.108Z,10.27
2018-11-12T22:25:49.067Z,10.31
2018-11-12T22:29:04.733Z,10.28
2018-11-12T22:32:22.236Z,10.23
2018-11-12T22:35:37.181Z,10.27
2018-11-12T22:38:42.023Z,10.25
2018-11-12T22:42:05.705Z,10.25
2018-11-12T22:45:12.467Z,10.21
2018-11-12T22:48:36.167Z,10.33
2018-11-12T22:51:59.835Z,10.27
2018-11-12T22:55:04.802Z,10.31
2018-11-12T22:58:28.225Z,10.28
2018-11-12T23:01:51.832Z,10.24
2018-11-12T23:04:56.602Z,10.28
2018-11-12T23:08:20.316Z,10.31
2018-11-12T23:11:47.248Z,10.31
2018-11-12T23:15:02.970Z,10.30
2018-11-12T23:18:18.897Z,10.33
2018-11-12T23:21:37.353Z,10.41
2018-11-12T23:24:53.885Z,10.33
2018-11-12T23:28:10.175Z,10.37
2018-11-12T23:31:28.653Z,10.35
2018-11-12T23:34:44.736Z,10.33
2018-11-12T23:38:00.625Z,10.29
2018-11-12T23:41:16.415Z,10.38
2018-11-12T23:44:32.219Z,10.29
2018-11-12T23:47:37.485Z,10.39
2018-11-12T23:51:01.247Z,10.29
2018-11-12T23:54:06.097Z,10.34
2018-11-12T23:57:10.938Z,10.31
